Time;durP1;ratioP1;P1;durP2;ratioP2;P2;SDS_P1;SDS_P2;PMS_P1;PMS_P2;Temp;Humidity;BMP_temperature;BMP_pressure;BME280_temperature;BME280_humidity;BME280_pressure;Samples;Min_cycle;Max_cycle;Signal;HPM_P1;HPM_P2
2021/08/21 00:01:37;;;;;;;13.90;12.80;;;;;;;;;;4978645;28;24437;-60
2021/08/21 00:04:03;;;;;;;14.20;13.10;;;;;;;;;;4981175;28;24560;-60
2021/08/21 00:06:28;;;;;;;15.20;14.00;;;;;;;;;;4983970;28;24488;-60
2021/08/21 00:08:53;;;;;;;14.10;13.00;;;;;;;;;;4981969;28;24409;-61
2021/08/21 00:11:18;;;;;;;14.50;13.40;;;;;;;;;;4979582;28;24413;-60
2021/08/21 00:13:43;;;;;;;14.35;13.18;;;;;;;;;;4978888;28;25180;-61
2021/08/21 00:16:08;;;;;;;14.20;13.10;;;;;;;;;;4978633;28;24409;-60
2021/08/21 00:18:33;;;;;;;14.90;13.70;;;;;;;;;;4962706;28;24814;-61
2021/08/21 00:20:59;;;;;;;13.40;12.30;;;;;;;;;;4982667;28;24447;-60
2021/08/21 00:23:24;;;;;;;13.23;12.23;;;;;;;;;;4982178;28;24408;-60
2021/08/21 00:25:49;;;;;;;14.47;13.37;;;;;;;;;;4980995;28;24393;-60
2021/08/21 00:28:14;;;;;;;13.27;12.27;;;;;;;;;;4961051;28;24416;-60
2021/08/21 00:30:39;;;;;;;13.75;12.70;;;;;;;;;;4978493;28;24403;-59
2021/08/21 00:33:05;;;;;;;13.00;12.00;;;;;;;;;;4978761;28;24421;-60
2021/08/21 00:35:30;;;;;;;13.40;12.40;;;;;;;;;;4984204;28;24405;-59
2021/08/21 00:37:55;;;;;;;13.00;12.00;;;;;;;;;;4982115;28;24393;-60
2021/08/21 00:40:20;;;;;;;12.50;11.50;;;;;;;;;;4978429;28;24464;-60
2021/08/21 00:42:45;;;;;;;11.97;11.07;;;;;;;;;;4980315;28;24395;-60
2021/08/21 00:45:11;;;;;;;12.20;11.20;;;;;;;;;;4978539;28;24990;-61
2021/08/21 00:47:36;;;;;;;12.10;11.10;;;;;;;;;;4981672;28;24493;-61
2021/08/21 00:50:02;;;;;;;12.13;11.23;;;;;;;;;;4983901;28;24395;-60
2021/08/21 00:52:29;;;;;;;12.00;11.10;;;;;;;;;;4983856;28;24417;-61
2021/08/21 00:54:55;;;;;;;11.57;10.68;;;;;;;;;;4982225;28;24634;-61
2021/08/21 00:57:20;;;;;;;12.40;11.40;;;;;;;;;;4983963;28;24807;-61
2021/08/21 00:59:46;;;;;;;11.48;10.57;;;;;;;;;;4982169;28;24480;-60
2021/08/21 01:02:12;;;;;;;10.55;9.80;;;;;;;;;;4987786;28;25789;-61
2021/08/21 01:04:41;;;;;;;11.20;10.40;;;;;;;;;;4985409;28;24950;-60
2021/08/21 01:07:08;;;;;;;10.85;10.05;;;;;;;;;;4982034;28;24393;-60
2021/08/21 01:09:35;;;;;;;11.43;10.52;;;;;;;;;;4981673;28;24424;-60
2021/08/21 01:12:00;;;;;;;11.38;10.48;;;;;;;;;;4982065;28;24416;-60
2021/08/21 01:14:27;;;;;;;11.30;10.50;;;;;;;;;;4987137;28;24409;-60
2021/08/21 01:16:53;;;;;;;10.80;10.00;;;;;;;;;;4987280;28;24389;-60
2021/08/21 01:19:19;;;;;;;11.23;10.40;;;;;;;;;;4982726;28;24413;-60
2021/08/21 01:21:44;;;;;;;11.30;10.40;;;;;;;;;;4981731;28;24420;-60
2021/08/21 01:24:09;;;;;;;11.30;10.50;;;;;;;;;;4981702;28;24409;-60
2021/08/21 01:26:35;;;;;;;11.63;10.73;;;;;;;;;;4983244;28;24475;-60
2021/08/21 01:29:00;;;;;;;10.93;10.13;;;;;;;;;;4984975;28;24455;-61
2021/08/21 01:31:25;;;;;;;12.05;11.05;;;;;;;;;;4986891;28;25045;-60
2021/08/21 01:33:50;;;;;;;10.90;10.00;;;;;;;;;;4983664;28;24966;-60
2021/08/21 01:36:15;;;;;;;11.02;10.23;;;;;;;;;;4981266;28;25070;-60
2021/08/21 01:38:56;;;;;;;10.77;9.98;;;;;;;;;;4982688;28;24432;-61
2021/08/21 01:41:22;;;;;;;10.82;9.93;;;;;;;;;;4986903;28;24388;-61
2021/08/21 01:43:47;;;;;;;10.27;9.47;;;;;;;;;;4984672;28;24476;-61
2021/08/21 01:46:12;;;;;;;10.82;10.02;;;;;;;;;;4981575;28;25412;-61
2021/08/21 01:48:37;;;;;;;10.88;10.02;;;;;;;;;;4980943;28;24402;-61
2021/08/21 01:51:02;;;;;;;10.00;9.30;;;;;;;;;;4984850;28;24413;-60
2021/08/21 01:53:29;;;;;;;9.90;9.20;;;;;;;;;;4986295;28;24979;-61
2021/08/21 01:55:54;;;;;;;10.10;9.30;;;;;;;;;;4983305;28;24500;-62
2021/08/21 01:58:19;;;;;;;10.20;9.50;;;;;;;;;;4982652;28;24830;-61
2021/08/21 02:00:45;;;;;;;9.60;8.90;;;;;;;;;;4980421;28;24686;-60
2021/08/21 02:03:10;;;;;;;9.60;8.90;;;;;;;;;;4984708;28;24389;-61
2021/08/21 02:05:35;;;;;;;9.93;9.23;;;;;;;;;;4986376;28;24385;-61
2021/08/21 02:08:00;;;;;;;10.40;9.60;;;;;;;;;;4982582;28;24385;-61
2021/08/21 02:10:26;;;;;;;9.85;9.15;;;;;;;;;;4980925;28;24483;-62
2021/08/21 02:12:51;;;;;;;10.50;9.70;;;;;;;;;;4982378;28;24532;-62
2021/08/21 02:15:16;;;;;;;9.52;8.82;;;;;;;;;;4980842;28;24493;-61
2021/08/21 02:17:42;;;;;;;9.43;8.73;;;;;;;;;;4983909;28;25065;-62
2021/08/21 02:20:11;;;;;;;9.40;8.70;;;;;;;;;;4984159;28;24448;-61
2021/08/21 02:22:36;;;;;;;9.88;9.10;;;;;;;;;;4966724;28;24400;-62
2021/08/21 02:25:02;;;;;;;9.50;8.80;;;;;;;;;;4980702;28;24401;-61
2021/08/21 02:27:29;;;;;;;11.00;9.90;;;;;;;;;;4980257;28;24821;-61
2021/08/21 02:29:54;;;;;;;10.00;9.30;;;;;;;;;;4980490;28;24464;-61
2021/08/21 02:32:19;;;;;;;10.40;9.60;;;;;;;;;;4985645;28;25219;-60
2021/08/21 02:34:44;;;;;;;10.20;9.40;;;;;;;;;;4985747;28;24389;-60
2021/08/21 02:37:12;;;;;;;10.23;9.53;;;;;;;;;;4983800;28;24389;-61
2021/08/21 02:39:37;;;;;;;10.45;9.65;;;;;;;;;;4980245;28;24429;-61
2021/08/21 02:42:03;;;;;;;10.50;9.70;;;;;;;;;;4980027;28;24963;-60
2021/08/21 02:44:28;;;;;;;10.23;9.45;;;;;;;;;;4980873;28;24401;-60
2021/08/21 02:46:53;;;;;;;10.07;9.37;;;;;;;;;;4982796;28;24405;-60
2021/08/21 02:49:18;;;;;;;10.20;9.40;;;;;;;;;;4985354;28;24463;-60
2021/08/21 02:51:43;;;;;;;10.02;9.25;;;;;;;;;;4983389;28;24437;-60
2021/08/21 02:54:08;;;;;;;10.07;9.27;;;;;;;;;;4979618;28;24507;-60
2021/08/21 02:56:34;;;;;;;10.20;9.43;;;;;;;;;;4979745;28;24404;-60
2021/08/21 02:58:59;;;;;;;9.80;9.10;;;;;;;;;;4979599;28;24847;-60
2021/08/21 03:01:26;;;;;;;10.37;9.60;;;;;;;;;;4983020;28;24936;-60
2021/08/21 03:03:52;;;;;;;10.00;9.30;;;;;;;;;;4984768;28;24463;-60
2021/08/21 03:06:17;;;;;;;10.77;9.97;;;;;;;;;;4981610;28;24990;-61
2021/08/21 03:08:42;;;;;;;10.53;9.73;;;;;;;;;;4981484;28;25012;-60
2021/08/21 03:11:07;;;;;;;10.23;9.47;;;;;;;;;;4979417;28;24393;-60
2021/08/21 03:13:32;;;;;;;10.35;9.55;;;;;;;;;;4979542;28;24452;-60
2021/08/21 03:15:58;;;;;;;10.10;9.30;;;;;;;;;;4981100;28;24807;-61
2021/08/21 03:18:23;;;;;;;11.07;10.17;;;;;;;;;;4984717;28;24405;-61
2021/08/21 03:20:48;;;;;;;10.37;9.57;;;;;;;;;;4984557;28;24496;-60
2021/08/21 03:23:13;;;;;;;10.40;9.60;;;;;;;;;;4979849;28;24451;-61
2021/08/21 03:25:38;;;;;;;10.10;9.40;;;;;;;;;;4978951;28;24954;-61
2021/08/21 03:28:03;;;;;;;10.80;9.88;;;;;;;;;;4979204;28;24487;-61
2021/08/21 03:30:29;;;;;;;9.77;9.07;;;;;;;;;;4984547;28;24405;-61
2021/08/21 03:32:54;;;;;;;10.17;9.47;;;;;;;;;;4982634;28;24936;-60
2021/08/21 03:35:19;;;;;;;9.83;9.03;;;;;;;;;;4980929;28;24831;-60
2021/08/21 03:37:44;;;;;;;10.83;10.03;;;;;;;;;;4979395;28;24385;-60
2021/08/21 03:40:11;;;;;;;10.52;9.73;;;;;;;;;;4978889;28;24405;-60
2021/08/21 03:42:36;;;;;;;11.30;10.40;;;;;;;;;;4980685;28;25071;-61
2021/08/21 03:45:01;;;;;;;10.65;9.75;;;;;;;;;;4982955;28;25003;-61
2021/08/21 03:47:27;;;;;;;10.40;9.60;;;;;;;;;;4982372;28;24961;-60
2021/08/21 03:49:52;;;;;;;10.17;9.37;;;;;;;;;;4980714;28;24967;-60
2021/08/21 03:52:17;;;;;;;9.80;9.10;;;;;;;;;;4978680;28;24550;-60
2021/08/21 03:54:42;;;;;;;10.40;9.60;;;;;;;;;;4984135;28;24421;-60
2021/08/21 03:57:07;;;;;;;9.90;9.20;;;;;;;;;;4982343;28;25022;-60
2021/08/21 03:59:32;;;;;;;10.10;9.40;;;;;;;;;;4978757;28;24404;-60
2021/08/21 04:01:57;;;;;;;9.52;8.82;;;;;;;;;;4978708;28;24401;-60
2021/08/21 04:04:23;;;;;;;9.60;8.90;;;;;;;;;;4980666;28;24500;-60
2021/08/21 04:06:48;;;;;;;10.00;9.20;;;;;;;;;;4982169;28;24392;-61
2021/08/21 04:09:13;;;;;;;9.55;8.80;;;;;;;;;;4982194;28;25200;-61
2021/08/21 04:11:38;;;;;;;10.07;9.27;;;;;;;;;;4980443;28;24397;-61
2021/08/21 04:14:03;;;;;;;10.20;9.40;;;;;;;;;;4978473;28;24757;-61
2021/08/21 04:16:28;;;;;;;10.70;9.60;;;;;;;;;;4979127;28;24717;-60
2021/08/21 04:18:53;;;;;;;9.80;9.10;;;;;;;;;;4979825;28;24513;-59
2021/08/21 04:21:19;;;;;;;9.90;9.15;;;;;;;;;;4984273;28;24902;-60
2021/08/21 04:23:44;;;;;;;9.93;9.15;;;;;;;;;;4982147;28;24476;-60
2021/08/21 04:26:09;;;;;;;10.27;9.50;;;;;;;;;;4982359;28;24448;-60
2021/08/21 04:28:34;;;;;;;10.38;9.57;;;;;;;;;;4982070;28;24484;-60
2021/08/21 04:30:59;;;;;;;9.60;8.80;;;;;;;;;;4982635;28;24490;-60
2021/08/21 04:33:25;;;;;;;10.10;9.30;;;;;;;;;;4986253;28;24421;-60
2021/08/21 04:35:50;;;;;;;10.03;9.33;;;;;;;;;;4987976;28;24447;-61
2021/08/21 04:38:16;;;;;;;10.03;9.33;;;;;;;;;;4985013;28;24488;-61
2021/08/21 04:40:43;;;;;;;10.60;9.80;;;;;;;;;;4984175;28;24925;-61
2021/08/21 04:43:09;;;;;;;9.15;8.45;;;;;;;;;;4982952;28;24393;-60
2021/08/21 04:45:34;;;;;;;9.82;9.02;;;;;;;;;;4982483;28;24954;-61
2021/08/21 04:47:59;;;;;;;9.63;8.93;;;;;;;;;;4984063;28;24480;-61
2021/08/21 04:50:24;;;;;;;8.73;8.02;;;;;;;;;;4987544;28;24451;-60
2021/08/21 04:52:49;;;;;;;8.60;8.00;;;;;;;;;;4987657;28;25026;-60
2021/08/21 04:55:14;;;;;;;8.73;8.03;;;;;;;;;;4981963;28;24760;-61
2021/08/21 04:57:39;;;;;;;7.22;6.72;;;;;;;;;;4982180;28;24424;-60
2021/08/21 05:00:05;;;;;;;7.20;6.70;;;;;;;;;;4984191;28;24978;-60
2021/08/21 05:02:30;;;;;;;8.25;7.65;;;;;;;;;;4987538;28;24405;-61
2021/08/21 05:04:56;;;;;;;7.83;7.23;;;;;;;;;;4985468;28;24405;-61
2021/08/21 05:07:21;;;;;;;7.33;6.83;;;;;;;;;;4983906;28;24455;-61
2021/08/21 05:09:46;;;;;;;6.70;6.25;;;;;;;;;;4981565;28;24962;-60
2021/08/21 05:12:11;;;;;;;7.70;7.20;;;;;;;;;;4982077;28;24548;-60
2021/08/21 05:14:36;;;;;;;8.23;7.63;;;;;;;;;;4985517;28;24749;-60
2021/08/21 05:17:02;;;;;;;8.75;8.13;;;;;;;;;;4985545;28;24440;-61
2021/08/21 05:19:35;;;;;;;7.90;7.40;;;;;;;;;;4986776;28;25076;-60
2021/08/21 05:25:00;;;;;;;6.80;6.30;;;;;;;;;;4921392;29;24466;-61
2021/08/21 05:27:25;;;;;;;6.40;6.00;;;;;;;;;;4970393;28;24982;-62
2021/08/21 05:29:51;;;;;;;6.30;5.90;;;;;;;;;;4982922;28;24443;-62
2021/08/21 05:32:16;;;;;;;6.40;6.00;;;;;;;;;;4986932;28;24529;-61
2021/08/21 05:34:41;;;;;;;7.27;6.77;;;;;;;;;;4985363;28;24402;-61
2021/08/21 05:37:06;;;;;;;6.37;5.97;;;;;;;;;;4980404;28;24446;-61
2021/08/21 05:39:32;;;;;;;6.80;6.30;;;;;;;;;;4981592;28;24476;-61
2021/08/21 05:41:57;;;;;;;6.63;6.03;;;;;;;;;;4981260;28;24531;-62
2021/08/21 05:44:22;;;;;;;6.97;6.47;;;;;;;;;;4986851;28;25170;-62
2021/08/21 05:46:47;;;;;;;6.72;6.22;;;;;;;;;;4986854;28;24405;-61
2021/08/21 05:49:13;;;;;;;6.32;5.93;;;;;;;;;;4981319;28;24946;-62
2021/08/21 05:51:38;;;;;;;6.40;5.90;;;;;;;;;;4981316;28;24463;-62
2021/08/21 05:54:03;;;;;;;6.50;6.00;;;;;;;;;;4981115;28;24989;-62
2021/08/21 05:56:28;;;;;;;6.15;5.75;;;;;;;;;;4986843;28;24451;-62
2021/08/21 05:58:53;;;;;;;5.88;5.47;;;;;;;;;;4985800;28;24444;-62
2021/08/21 06:01:18;;;;;;;5.80;5.50;;;;;;;;;;4981407;28;24971;-62
2021/08/21 06:03:44;;;;;;;6.17;5.77;;;;;;;;;;4981457;28;24419;-62
2021/08/21 06:06:12;;;;;;;5.97;5.57;;;;;;;;;;4980679;28;24472;-62
2021/08/21 06:08:38;;;;;;;5.40;5.10;;;;;;;;;;4984150;28;24413;-62
2021/08/21 06:11:03;;;;;;;5.60;5.30;;;;;;;;;;4984311;28;24396;-62
2021/08/21 06:13:28;;;;;;;6.10;5.70;;;;;;;;;;4982440;28;24440;-62
2021/08/21 06:15:54;;;;;;;6.30;5.90;;;;;;;;;;4982068;28;24389;-63
2021/08/21 06:18:19;;;;;;;5.60;5.20;;;;;;;;;;4978254;28;24488;-62
2021/08/21 06:20:44;;;;;;;5.22;4.93;;;;;;;;;;4984182;28;24416;-62
2021/08/21 06:23:09;;;;;;;5.50;5.10;;;;;;;;;;4984486;28;24920;-61
2021/08/21 06:25:34;;;;;;;5.90;5.50;;;;;;;;;;4982875;28;24776;-63
2021/08/21 06:27:59;;;;;;;6.00;5.60;;;;;;;;;;4980707;28;24784;-62
2021/08/21 06:30:25;;;;;;;5.80;5.40;;;;;;;;;;4982528;28;24397;-62
2021/08/21 06:32:50;;;;;;;5.95;5.55;;;;;;;;;;4983989;28;24413;-61
2021/08/21 06:35:15;;;;;;;7.00;6.50;;;;;;;;;;4985089;28;24399;-62
2021/08/21 06:37:40;;;;;;;5.80;5.40;;;;;;;;;;4986145;28;24455;-62
2021/08/21 06:40:06;;;;;;;5.65;5.25;;;;;;;;;;4980236;28;24729;-63
2021/08/21 06:42:31;;;;;;;4.90;4.60;;;;;;;;;;4980737;28;24472;-62
2021/08/21 06:44:56;;;;;;;6.50;6.00;;;;;;;;;;4980366;28;24493;-63
2021/08/21 06:47:21;;;;;;;5.70;5.30;;;;;;;;;;4985877;28;24463;-63
2021/08/21 06:49:46;;;;;;;6.20;5.80;;;;;;;;;;4985513;28;24717;-63
2021/08/21 06:52:11;;;;;;;6.10;5.70;;;;;;;;;;4980368;28;24409;-63
2021/08/21 06:54:37;;;;;;;6.22;5.82;;;;;;;;;;4980444;28;24800;-63
2021/08/21 06:57:02;;;;;;;6.57;6.07;;;;;;;;;;4980244;28;24401;-62
2021/08/21 06:59:27;;;;;;;7.60;7.00;;;;;;;;;;4983755;28;24463;-62
2021/08/21 07:01:52;;;;;;;5.77;5.37;;;;;;;;;;4985571;28;24998;-62
2021/08/21 07:04:17;;;;;;;7.50;6.90;;;;;;;;;;4983640;28;24408;-63
2021/08/21 07:06:42;;;;;;;6.45;6.05;;;;;;;;;;4981887;28;24483;-63
2021/08/21 07:09:07;;;;;;;5.60;5.20;;;;;;;;;;4979888;28;24958;-63
2021/08/21 07:11:33;;;;;;;6.30;5.90;;;;;;;;;;4980145;28;24405;-62
2021/08/21 07:13:58;;;;;;;6.47;5.90;;;;;;;;;;4981613;28;24421;-62
2021/08/21 07:16:23;;;;;;;6.43;5.93;;;;;;;;;;4985443;28;24455;-62
2021/08/21 07:18:48;;;;;;;6.90;6.40;;;;;;;;;;4983457;28;24752;-62
2021/08/21 07:21:13;;;;;;;6.47;5.97;;;;;;;;;;4979799;28;25012;-62
2021/08/21 07:23:39;;;;;;;6.43;6.03;;;;;;;;;;4980132;28;24397;-62
2021/08/21 07:26:04;;;;;;;6.00;5.60;;;;;;;;;;4979863;28;24720;-62
2021/08/21 07:28:29;;;;;;;6.00;5.60;;;;;;;;;;4984946;28;24747;-62
2021/08/21 07:30:55;;;;;;;7.17;6.50;;;;;;;;;;4983617;28;24412;-62
2021/08/21 07:33:20;;;;;;;5.70;5.30;;;;;;;;;;4983205;28;24440;-62
2021/08/21 07:35:45;;;;;;;6.30;5.80;;;;;;;;;;4981381;28;24475;-61
2021/08/21 07:38:10;;;;;;;7.03;6.53;;;;;;;;;;4979356;28;24484;-62
2021/08/21 07:40:35;;;;;;;6.28;5.82;;;;;;;;;;4979229;28;24497;-63
2021/08/21 07:43:01;;;;;;;5.30;5.00;;;;;;;;;;4983160;28;24764;-63
2021/08/21 07:45:26;;;;;;;4.83;4.53;;;;;;;;;;4984837;28;24943;-63
2021/08/21 07:47:52;;;;;;;5.23;4.93;;;;;;;;;;4981376;28;24420;-63
2021/08/21 07:50:17;;;;;;;6.00;5.60;;;;;;;;;;4979204;28;24404;-62
2021/08/21 07:52:43;;;;;;;6.97;6.47;;;;;;;;;;4979226;28;24437;-63
2021/08/21 07:55:08;;;;;;;6.00;5.53;;;;;;;;;;4982666;28;24419;-62
2021/08/21 07:57:33;;;;;;;6.80;6.30;;;;;;;;;;4984897;28;24452;-62
2021/08/21 07:59:58;;;;;;;6.95;6.45;;;;;;;;;;4978481;28;24413;-63
2021/08/21 08:02:23;;;;;;;7.05;6.55;;;;;;;;;;4979650;28;24507;-63
2021/08/21 08:04:49;;;;;;;7.80;7.20;;;;;;;;;;4980805;28;24967;-62
2021/08/21 08:07:14;;;;;;;5.70;5.30;;;;;;;;;;4982703;28;24397;-63
2021/08/21 08:09:39;;;;;;;5.73;5.33;;;;;;;;;;4984515;28;24431;-62
2021/08/21 08:12:05;;;;;;;8.68;8.05;;;;;;;;;;4978937;28;24513;-62
2021/08/21 08:14:30;;;;;;;5.80;5.40;;;;;;;;;;4979303;28;24763;-62
2021/08/21 08:16:55;;;;;;;5.23;4.83;;;;;;;;;;4979037;28;24440;-62
2021/08/21 08:19:20;;;;;;;6.50;6.00;;;;;;;;;;4984115;28;24392;-62
2021/08/21 08:21:45;;;;;;;7.60;7.00;;;;;;;;;;4984261;28;24536;-63
2021/08/21 08:24:12;;;;;;;5.40;5.00;;;;;;;;;;4982591;28;24408;-63
2021/08/21 08:26:37;;;;;;;6.15;5.75;;;;;;;;;;4979357;28;24859;-63
2021/08/21 08:29:02;;;;;;;5.72;5.32;;;;;;;;;;4978911;28;24956;-61
2021/08/21 08:31:28;;;;;;;5.68;5.28;;;;;;;;;;4982839;28;24492;-62
2021/08/21 08:33:53;;;;;;;6.97;6.27;;;;;;;;;;4984040;28;24428;-62
2021/08/21 08:36:18;;;;;;;5.13;4.82;;;;;;;;;;4982487;28;24947;-62
2021/08/21 08:38:43;;;;;;;6.07;5.68;;;;;;;;;;4980618;28;24425;-63
2021/08/21 08:41:09;;;;;;;6.40;5.90;;;;;;;;;;4978832;28;24385;-62
2021/08/21 08:43:35;;;;;;;6.70;6.20;;;;;;;;;;4980638;28;24492;-63
2021/08/21 08:46:00;;;;;;;6.47;5.97;;;;;;;;;;4982485;28;24544;-62
2021/08/21 08:48:26;;;;;;;5.60;5.20;;;;;;;;;;4982391;28;24404;-62
2021/08/21 08:50:53;;;;;;;5.78;5.38;;;;;;;;;;4980392;28;25046;-62
2021/08/21 08:53:18;;;;;;;6.10;5.70;;;;;;;;;;4978669;28;24572;-61
2021/08/21 08:55:46;;;;;;;5.50;5.10;;;;;;;;;;4978775;28;25086;-62
2021/08/21 08:58:11;;;;;;;5.20;4.80;;;;;;;;;;4982194;28;24403;-62
2021/08/21 09:00:36;;;;;;;5.40;5.00;;;;;;;;;;4983834;28;24503;-63
2021/08/21 09:03:04;;;;;;;4.90;4.60;;;;;;;;;;4982255;28;24405;-62
2021/08/21 09:05:40;;;;;;;4.80;4.50;;;;;;;;;;4978673;28;24485;-62
2021/08/21 09:08:05;;;;;;;5.70;5.30;;;;;;;;;;4979014;28;24826;-62
2021/08/21 09:10:31;;;;;;;6.50;6.03;;;;;;;;;;4981060;28;24953;-62
2021/08/21 09:13:11;;;;;;;6.33;5.93;;;;;;;;;;4987472;28;24413;-63
2021/08/21 09:15:37;;;;;;;5.55;5.10;;;;;;;;;;4987380;28;24385;-65
2021/08/21 09:18:13;;;;;;;6.03;5.63;;;;;;;;;;4981911;28;24432;-62
2021/08/21 09:20:47;;;;;;;5.80;5.40;;;;;;;;;;4982004;28;24553;-62
2021/08/21 09:23:27;;;;;;;6.10;5.60;;;;;;;;;;4982061;28;24575;-62
2021/08/21 09:25:52;;;;;;;5.30;5.00;;;;;;;;;;4987308;28;25334;-62
2021/08/21 09:28:18;;;;;;;4.80;4.50;;;;;;;;;;4985203;28;24938;-62
2021/08/21 09:30:43;;;;;;;4.80;4.50;;;;;;;;;;4983701;28;24397;-63
2021/08/21 09:33:08;;;;;;;5.30;4.90;;;;;;;;;;4981645;28;24509;-62
2021/08/21 09:35:34;;;;;;;5.40;5.00;;;;;;;;;;4981993;28;24482;-63
2021/08/21 09:37:59;;;;;;;5.67;5.27;;;;;;;;;;4983520;28;24495;-62
2021/08/21 09:40:27;;;;;;;4.83;4.53;;;;;;;;;;4987234;28;24392;-63
2021/08/21 09:42:52;;;;;;;5.72;5.32;;;;;;;;;;4985448;28;24488;-62
2021/08/21 09:45:20;;;;;;;5.63;5.13;;;;;;;;;;4981657;28;24844;-62
2021/08/21 09:47:45;;;;;;;5.50;5.10;;;;;;;;;;4981984;28;24811;-63
2021/08/21 09:50:17;;;;;;;5.90;5.40;;;;;;;;;;4983208;28;24943;-62
2021/08/21 09:52:43;;;;;;;5.85;5.45;;;;;;;;;;4986967;28;24420;-62
2021/08/21 09:55:10;;;;;;;5.43;5.10;;;;;;;;;;4984958;28;24421;-63
2021/08/21 09:57:36;;;;;;;4.60;4.30;;;;;;;;;;4981196;28;24393;-63
2021/08/21 10:00:03;;;;;;;5.70;5.30;;;;;;;;;;4981402;28;24404;-62
2021/08/21 10:02:32;;;;;;;4.70;4.40;;;;;;;;;;4983114;28;24396;-63
2021/08/21 10:04:57;;;;;;;5.45;5.05;;;;;;;;;;4984880;28;24520;-64
2021/08/21 10:07:26;;;;;;;5.20;4.90;;;;;;;;;;4986489;28;24500;-63
2021/08/21 10:09:52;;;;;;;5.87;5.47;;;;;;;;;;4984528;28;24401;-63
2021/08/21 10:12:20;;;;;;;5.80;5.40;;;;;;;;;;4980613;28;25504;-63
2021/08/21 10:14:47;;;;;;;5.28;4.88;;;;;;;;;;4982279;28;24959;-64
2021/08/21 10:17:16;;;;;;;5.40;5.10;;;;;;;;;;4980830;28;24405;-61
2021/08/21 10:19:41;;;;;;;4.38;4.07;;;;;;;;;;4986134;28;25013;-62
2021/08/21 10:22:09;;;;;;;4.40;4.10;;;;;;;;;;4984133;28;24413;-62
2021/08/21 10:24:36;;;;;;;5.90;5.40;;;;;;;;;;4980898;28;24467;-63
2021/08/21 10:27:05;;;;;;;4.40;4.10;;;;;;;;;;4980963;28;24389;-62
2021/08/21 10:29:31;;;;;;;6.15;5.75;;;;;;;;;;4980356;28;25031;-62
2021/08/21 10:31:56;;;;;;;5.50;5.10;;;;;;;;;;4984510;28;24420;-62
2021/08/21 10:34:22;;;;;;;5.30;4.90;;;;;;;;;;4986299;28;24449;-62
2021/08/21 10:36:55;;;;;;;5.70;5.30;;;;;;;;;;4982821;28;24424;-62
2021/08/21 10:39:25;;;;;;;5.17;4.87;;;;;;;;;;4982219;28;24463;-62
2021/08/21 10:41:54;;;;;;;4.78;4.47;;;;;;;;;;4980927;28;24949;-62
2021/08/21 10:44:38;;;;;;;4.60;4.30;;;;;;;;;;4983934;28;24467;-62
2021/08/21 10:47:03;;;;;;;5.00;4.60;;;;;;;;;;4984171;28;24748;-63
2021/08/21 10:49:39;;;;;;;4.80;4.40;;;;;;;;;;4981823;28;24428;-62
2021/08/21 10:52:08;;;;;;;4.47;4.17;;;;;;;;;;4980477;28;24997;-63
2021/08/21 10:54:33;;;;;;;4.40;4.10;;;;;;;;;;4983707;28;24417;-62
2021/08/21 10:57:18;;;;;;;4.70;4.40;;;;;;;;;;4983989;28;24426;-63
2021/08/21 10:59:44;;;;;;;4.20;3.90;;;;;;;;;;4981720;28;24417;-63
2021/08/21 11:02:36;;;;;;;4.50;4.10;;;;;;;;;;4980273;28;24400;-63
2021/08/21 11:05:01;;;;;;;4.20;3.90;;;;;;;;;;4976364;28;24417;-63
2021/08/21 11:07:29;;;;;;;4.13;3.90;;;;;;;;;;4985456;28;24408;-64
2021/08/21 11:10:13;;;;;;;4.10;3.90;;;;;;;;;;4983166;28;24938;-63
2021/08/21 11:12:38;;;;;;;4.10;3.90;;;;;;;;;;4979957;28;25172;-63
2021/08/21 11:15:11;;;;;;;4.10;3.80;;;;;;;;;;4980161;28;24969;-63
2021/08/21 11:17:38;;;;;;;4.72;4.35;;;;;;;;;;4979866;28;24409;-63
2021/08/21 11:20:22;;;;;;;3.40;3.10;;;;;;;;;;4981504;28;24397;-62
2021/08/21 11:23:07;;;;;;;4.25;3.95;;;;;;;;;;4985288;28;24411;-62
2021/08/21 11:25:40;;;;;;;3.90;3.60;;;;;;;;;;4981320;28;24539;-63
2021/08/21 11:28:06;;;;;;;3.78;3.58;;;;;;;;;;4979536;28;24400;-63
2021/08/21 11:30:32;;;;;;;4.53;4.22;;;;;;;;;;4979547;28;24443;-62
2021/08/21 11:32:59;;;;;;;4.90;4.50;;;;;;;;;;4979589;28;24512;-63
2021/08/21 11:35:26;;;;;;;4.20;3.90;;;;;;;;;;4983890;28;24392;-63
2021/08/21 11:37:51;;;;;;;4.60;4.30;;;;;;;;;;4985113;28;24385;-63
2021/08/21 11:40:17;;;;;;;4.50;4.20;;;;;;;;;;4979343;28;24417;-62
2021/08/21 11:42:48;;;;;;;4.80;4.40;;;;;;;;;;4979825;28;24921;-62
2021/08/21 11:45:14;;;;;;;4.43;4.03;;;;;;;;;;4979527;28;24489;-62
2021/08/21 11:47:39;;;;;;;3.70;3.50;;;;;;;;;;4982887;28;24492;-63
2021/08/21 11:50:21;;;;;;;4.40;4.10;;;;;;;;;;4982540;28;24978;-63
2021/08/21 11:52:46;;;;;;;5.20;4.80;;;;;;;;;;4981226;28;24437;-63
2021/08/21 11:55:12;;;;;;;5.18;4.88;;;;;;;;;;4979371;28;24533;-62
2021/08/21 11:57:40;;;;;;;4.30;4.00;;;;;;;;;;4979232;28;24761;-62
2021/08/21 12:00:10;;;;;;;4.18;3.97;;;;;;;;;;4982497;28;24413;-62
2021/08/21 12:02:45;;;;;;;3.90;3.70;;;;;;;;;;4983974;28;25006;-62
2021/08/21 12:05:11;;;;;;;4.40;4.10;;;;;;;;;;4979217;28;24769;-62
2021/08/21 12:07:36;;;;;;;4.90;4.50;;;;;;;;;;4979015;28;24407;-62
2021/08/21 12:10:01;;;;;;;4.37;4.07;;;;;;;;;;4979021;28;24401;-62
2021/08/21 12:12:32;;;;;;;4.60;4.20;;;;;;;;;;4984080;28;24428;-62
2021/08/21 12:14:59;;;;;;;3.92;3.63;;;;;;;;;;4981979;28;24416;-62
2021/08/21 12:17:24;;;;;;;4.50;4.30;;;;;;;;;;4978908;28;24443;-66
2021/08/21 12:19:49;;;;;;;4.60;4.30;;;;;;;;;;4980643;28;24429;-62
2021/08/21 12:22:15;;;;;;;4.33;3.93;;;;;;;;;;4978912;28;24407;-63
2021/08/21 12:24:56;;;;;;;3.60;3.40;;;;;;;;;;4984065;28;24413;-62
2021/08/21 12:27:26;;;;;;;4.15;3.95;;;;;;;;;;4982312;28;24396;-62
2021/08/21 12:30:06;;;;;;;4.38;4.07;;;;;;;;;;4980904;28;24545;-61
2021/08/21 12:32:31;;;;;;;4.10;3.80;;;;;;;;;;4978826;28;24421;-62
2021/08/21 12:35:07;;;;;;;4.40;4.10;;;;;;;;;;4982732;28;24405;-62
2021/08/21 12:37:32;;;;;;;5.10;4.70;;;;;;;;;;4984246;28;24464;-62
2021/08/21 12:40:08;;;;;;;4.10;3.80;;;;;;;;;;4982133;28;25066;-62
2021/08/21 12:42:33;;;;;;;3.60;3.40;;;;;;;;;;4978558;28;24717;-62
2021/08/21 12:45:00;;;;;;;3.80;3.60;;;;;;;;;;4978878;28;24496;-62
2021/08/21 12:47:34;;;;;;;3.90;3.70;;;;;;;;;;4984386;28;24571;-62
2021/08/21 12:50:08;;;;;;;3.70;3.50;;;;;;;;;;4986002;28;24409;-62
2021/08/21 12:52:33;;;;;;;4.22;3.92;;;;;;;;;;4987553;28;24429;-63
2021/08/21 12:55:08;;;;;;;3.53;3.33;;;;;;;;;;4982772;28;25022;-64
2021/08/21 12:57:41;;;;;;;3.40;3.20;;;;;;;;;;4982379;28;24792;-63
2021/08/21 13:00:12;;;;;;;3.70;3.50;;;;;;;;;;4982331;28;24954;-63
2021/08/21 13:02:42;;;;;;;4.05;3.85;;;;;;;;;;4987512;28;25148;-63
2021/08/21 13:05:10;;;;;;;3.83;3.63;;;;;;;;;;4986002;28;24389;-62
2021/08/21 13:07:43;;;;;;;3.70;3.50;;;;;;;;;;4981872;28;24467;-62
2021/08/21 13:10:08;;;;;;;3.50;3.30;;;;;;;;;;4982343;28;24408;-62
2021/08/21 13:12:33;;;;;;;3.80;3.60;;;;;;;;;;4981876;28;24808;-62
2021/08/21 13:14:58;;;;;;;3.07;2.87;;;;;;;;;;4986063;28;24764;-62
2021/08/21 13:17:23;;;;;;;3.70;3.40;;;;;;;;;;4987296;28;25034;-62
2021/08/21 13:19:49;;;;;;;3.38;3.17;;;;;;;;;;4985841;28;24520;-62
2021/08/21 13:22:14;;;;;;;3.70;3.50;;;;;;;;;;4981819;28;24464;-62
2021/08/21 13:24:39;;;;;;;3.20;3.00;;;;;;;;;;4981858;28;25035;-61
2021/08/21 13:27:04;;;;;;;3.90;3.60;;;;;;;;;;4982258;28;24397;-61
2021/08/21 13:29:29;;;;;;;3.63;3.43;;;;;;;;;;4985109;28;25203;-64
2021/08/21 13:31:54;;;;;;;3.47;3.28;;;;;;;;;;4986984;28;24918;-63
2021/08/21 13:34:20;;;;;;;3.78;3.47;;;;;;;;;;4981698;28;24428;-63
2021/08/21 13:36:47;;;;;;;4.13;3.92;;;;;;;;;;4983747;28;24424;-63
2021/08/21 13:39:12;;;;;;;3.33;3.13;;;;;;;;;;4981909;28;24396;-63
2021/08/21 13:41:37;;;;;;;3.50;3.20;;;;;;;;;;4984814;28;24396;-62
2021/08/21 13:44:03;;;;;;;4.23;3.80;;;;;;;;;;4985254;28;24405;-63
2021/08/21 13:46:28;;;;;;;3.80;3.60;;;;;;;;;;4985017;28;24401;-63
2021/08/21 13:48:54;;;;;;;3.87;3.57;;;;;;;;;;4983190;28;24839;-62
2021/08/21 13:51:19;;;;;;;3.90;3.70;;;;;;;;;;4981389;28;24419;-63
2021/08/21 13:53:44;;;;;;;3.97;3.67;;;;;;;;;;4981352;28;24495;-63
2021/08/21 13:56:09;;;;;;;3.90;3.60;;;;;;;;;;4985224;28;24393;-64
2021/08/21 13:58:34;;;;;;;4.00;3.70;;;;;;;;;;4985509;28;24760;-63
2021/08/21 14:00:59;;;;;;;3.80;3.60;;;;;;;;;;4981489;28;24433;-64
2021/08/21 14:03:24;;;;;;;3.30;3.10;;;;;;;;;;4983113;28;24473;-63
2021/08/21 14:05:50;;;;;;;3.40;3.20;;;;;;;;;;4981376;28;24594;-61
2021/08/21 14:08:15;;;;;;;3.67;3.47;;;;;;;;;;4984901;28;24400;-62
2021/08/21 14:10:40;;;;;;;3.50;3.30;;;;;;;;;;4986262;28;24908;-62
2021/08/21 14:13:05;;;;;;;4.20;3.90;;;;;;;;;;4982711;28;24527;-63
2021/08/21 14:15:30;;;;;;;3.20;3.00;;;;;;;;;;4980711;28;24401;-62
2021/08/21 14:17:56;;;;;;;3.33;3.13;;;;;;;;;;4980984;28;24533;-61
2021/08/21 14:20:21;;;;;;;3.97;3.67;;;;;;;;;;4984354;28;24401;-61
2021/08/21 14:22:46;;;;;;;3.80;3.50;;;;;;;;;;4986021;28;24495;-62
2021/08/21 14:25:11;;;;;;;3.83;3.53;;;;;;;;;;4982468;28;24413;-62
2021/08/21 14:27:36;;;;;;;3.60;3.40;;;;;;;;;;4980523;28;24408;-61
2021/08/21 14:30:02;;;;;;;3.90;3.70;;;;;;;;;;4963003;28;24417;-61
2021/08/21 14:32:28;;;;;;;3.65;3.45;;;;;;;;;;4983782;28;24499;-62
2021/08/21 14:34:53;;;;;;;3.00;2.80;;;;;;;;;;4985821;28;24419;-62
2021/08/21 14:37:18;;;;;;;3.67;3.47;;;;;;;;;;4980714;28;24488;-60